createdAt,value
2023-04-15T00:00:58.807Z,5.18
2023-04-15T00:03:25.803Z,6.65
2023-04-15T00:05:52.599Z,6.93
2023-04-15T00:08:20.359Z,3.88
2023-04-15T00:10:47.079Z,5.55
2023-04-15T00:13:13.678Z,4.03
2023-04-15T00:15:41.013Z,4.57
2023-04-15T00:18:07.999Z,6.20
2023-04-15T00:20:35.358Z,4.60
2023-04-15T00:23:03.865Z,5.07
2023-04-15T00:25:30.596Z,5.50
2023-04-15T00:27:57.135Z,7.38
2023-04-15T00:30:23.860Z,6.25
2023-04-15T00:32:50.680Z,6.40
2023-04-15T00:35:21.687Z,3.10
2023-04-15T00:37:49.939Z,4.40
2023-04-15T00:40:19.465Z,4.50
2023-04-15T00:42:45.967Z,7.45
2023-04-15T00:45:13.963Z,8.50
2023-04-15T00:47:42.880Z,5.22
2023-04-15T00:50:10.866Z,5.35
2023-04-15T00:52:38.858Z,4.75
2023-04-15T00:55:06.500Z,8.52
2023-04-15T00:57:33.480Z,10.30
2023-04-15T01:00:01.045Z,3.88
2023-04-15T01:02:28.054Z,4.75
2023-04-15T01:04:56.681Z,3.30
2023-04-15T01:07:23.251Z,8.23
2023-04-15T01:09:50.134Z,7.15
2023-04-15T01:12:17.163Z,5.10
2023-04-15T01:14:43.794Z,5.18
2023-04-15T01:17:10.288Z,6.28
2023-04-15T01:19:37.154Z,4.32
2023-04-15T01:22:05.220Z,6.60
2023-04-15T01:24:33.203Z,6.75
2023-04-15T01:26:59.819Z,6.45
2023-04-15T01:29:27.348Z,5.05
2023-04-15T01:31:55.857Z,5.55
2023-04-15T01:34:22.766Z,5.80
2023-04-15T01:36:53.494Z,6.90
2023-04-15T01:39:21.607Z,3.83
2023-04-15T01:41:48.527Z,4.68
2023-04-15T01:44:16.366Z,10.55
2023-04-15T01:46:43.037Z,7.32
2023-04-15T01:49:09.647Z,5.53
2023-04-15T01:51:36.240Z,5.22
2023-04-15T01:54:02.892Z,5.57
2023-04-15T01:56:29.964Z,4.53
2023-04-15T01:58:56.909Z,7.22
2023-04-15T02:01:23.672Z,5.32
2023-04-15T02:03:50.730Z,3.80
2023-04-15T02:06:18.363Z,5.70
2023-04-15T02:08:45.178Z,7.57
2023-04-15T02:11:11.775Z,3.88
2023-04-15T02:13:38.401Z,5.03
2023-04-15T02:16:15.552Z,5.18
2023-04-15T02:18:45.295Z,4.40
2023-04-15T02:21:11.838Z,9.98
2023-04-15T02:23:38.427Z,5.38
2023-04-15T02:26:05.161Z,7.50
2023-04-15T02:28:31.723Z,7.30
2023-04-15T02:30:59.725Z,5.90
2023-04-15T02:33:26.411Z,7.68
2023-04-15T02:35:53.186Z,6.25
2023-04-15T02:38:19.905Z,4.28
2023-04-15T02:40:49.493Z,6.68
2023-04-15T02:43:17.155Z,4.40
2023-04-15T02:45:47.116Z,7.35
2023-04-15T02:48:13.989Z,3.95
2023-04-15T02:50:41.148Z,5.35
2023-04-15T02:53:09.916Z,7.57
2023-04-15T02:55:36.511Z,6.45
2023-04-15T02:58:03.104Z,6.13
2023-04-15T03:00:29.729Z,5.68
2023-04-15T03:03:03.332Z,5.40
2023-04-15T03:05:30.511Z,5.35
2023-04-15T03:07:57.182Z,8.55
2023-04-15T03:10:23.844Z,7.60
2023-04-15T03:12:50.703Z,9.75
2023-04-15T03:15:22.249Z,5.28
2023-04-15T03:17:51.815Z,5.13
2023-04-15T03:20:18.496Z,10.68
2023-04-15T03:22:45.334Z,6.85
2023-04-15T03:25:11.887Z,7.70
2023-04-15T03:27:39.671Z,6.18
2023-04-15T03:30:07.512Z,6.18
2023-04-15T03:32:36.531Z,7.10
2023-04-15T03:35:03.199Z,5.70
2023-04-15T03:37:29.763Z,6.78
2023-04-15T03:39:56.514Z,9.27
2023-04-15T03:42:23.206Z,5.90
2023-04-15T03:44:49.726Z,4.95
2023-04-15T03:47:16.358Z,7.88
2023-04-15T03:49:42.878Z,8.65
2023-04-15T03:52:09.471Z,7.03
2023-04-15T03:54:36.039Z,7.50
2023-04-15T03:57:03.338Z,7.78
2023-04-15T03:59:30.012Z,9.15
2023-04-15T04:01:56.699Z,11.20
2023-04-15T04:04:23.485Z,6.53
2023-04-15T04:06:50.157Z,7.70
2023-04-15T04:09:16.806Z,8.90
2023-04-15T04:11:43.381Z,8.35
2023-04-15T04:14:09.858Z,9.20
2023-04-15T04:16:36.670Z,6.18
2023-04-15T04:19:03.472Z,10.93
2023-04-15T04:21:30.739Z,8.98
2023-04-15T04:23:57.281Z,7.05
2023-04-15T04:26:23.947Z,7.32
2023-04-15T04:28:50.652Z,6.70
2023-04-15T04:31:17.255Z,10.00
2023-04-15T04:33:43.792Z,9.10
2023-04-15T04:36:10.400Z,6.40
2023-04-15T04:38:36.876Z,6.78
2023-04-15T04:41:03.448Z,7.50
2023-04-15T04:43:30.418Z,7.80
2023-04-15T04:45:57.006Z,10.15
2023-04-15T04:48:23.506Z,10.70
2023-04-15T04:50:50.381Z,7.05
2023-04-15T04:53:17.969Z,8.02
2023-04-15T04:55:44.534Z,8.40
2023-04-15T04:58:11.546Z,9.27
2023-04-15T05:00:38.372Z,10.00
2023-04-15T05:03:05.289Z,7.63
2023-04-15T05:05:32.115Z,7.75
2023-04-15T05:07:58.761Z,8.10
2023-04-15T05:10:25.467Z,7.38
2023-04-15T05:12:52.550Z,10.30
2023-04-15T05:15:19.091Z,9.20
2023-04-15T05:17:46.014Z,22.92
2023-04-15T05:20:13.524Z,11.88
2023-04-15T05:22:40.311Z,7.97
2023-04-15T05:25:07.227Z,8.45
2023-04-15T05:27:33.729Z,8.82
2023-04-15T05:30:00.430Z,8.43
2023-04-15T05:32:27.103Z,9.18
2023-04-15T05:34:53.652Z,10.65
2023-04-15T05:37:22.818Z,13.30
2023-04-15T05:39:49.686Z,9.18
2023-04-15T05:42:16.661Z,10.27
2023-04-15T05:44:43.252Z,9.40
2023-04-15T05:47:10.813Z,11.02
2023-04-15T05:49:37.392Z,11.45
2023-04-15T05:52:03.984Z,9.25
2023-04-15T05:54:30.628Z,18.05
2023-04-15T05:56:58.224Z,12.48
2023-04-15T05:59:24.771Z,10.05
2023-04-15T06:01:52.096Z,8.88
2023-04-15T06:04:18.854Z,10.00
2023-04-15T06:06:45.513Z,8.98
2023-04-15T06:09:12.052Z,10.63
2023-04-15T06:11:38.591Z,7.95
2023-04-15T06:14:05.136Z,13.60
2023-04-15T06:16:32.238Z,8.93
2023-04-15T06:18:58.901Z,8.38
2023-04-15T06:21:25.653Z,11.95
2023-04-15T06:23:52.203Z,12.05
2023-04-15T06:26:18.720Z,8.98
2023-04-15T06:28:45.290Z,8.75
2023-04-15T06:31:11.911Z,11.27
2023-04-15T06:33:39.507Z,13.05
2023-04-15T06:36:06.254Z,9.85
2023-04-15T06:38:32.808Z,8.25
2023-04-15T06:40:59.367Z,10.73
2023-04-15T06:43:25.966Z,10.60
2023-04-15T06:45:52.503Z,8.25
2023-04-15T06:48:19.191Z,9.48
2023-04-15T06:50:45.702Z,8.70
2023-04-15T06:53:12.291Z,9.57
2023-04-15T06:55:38.983Z,11.35
2023-04-15T06:58:05.760Z,7.78
2023-04-15T07:00:33.643Z,9.75
2023-04-15T07:03:03.743Z,9.75
2023-04-15T07:05:31.012Z,8.82
2023-04-15T07:07:57.633Z,13.27
2023-04-15T07:10:25.552Z,9.57
2023-04-15T07:12:52.514Z,9.57
2023-04-15T07:15:19.539Z,8.55
2023-04-15T07:17:46.333Z,11.45
2023-04-15T07:20:13.840Z,8.60
2023-04-15T07:22:40.765Z,6.82
2023-04-15T07:25:07.807Z,8.40
2023-04-15T07:27:34.349Z,8.05
2023-04-15T07:30:01.008Z,8.35
2023-04-15T07:32:27.690Z,8.35
2023-04-15T07:34:54.614Z,6.80
2023-04-15T07:37:21.200Z,10.30
2023-04-15T07:39:47.935Z,7.18
2023-04-15T07:42:15.153Z,9.75
2023-04-15T07:44:41.914Z,9.18
2023-04-15T07:47:08.433Z,7.10
2023-04-15T07:49:34.989Z,5.75
2023-04-15T07:52:01.575Z,7.38
2023-04-15T07:54:28.089Z,6.43
2023-04-15T07:56:55.019Z,8.35
2023-04-15T07:59:22.512Z,11.45
2023-04-15T08:01:49.088Z,8.35
2023-04-15T08:04:16.119Z,7.38
2023-04-15T08:06:42.765Z,6.25
2023-04-15T08:09:09.360Z,7.95
2023-04-15T08:11:36.528Z,6.30
2023-04-15T08:14:03.219Z,7.30
2023-04-15T08:16:29.854Z,8.60
2023-04-15T08:18:56.873Z,9.43
2023-04-15T08:21:24.486Z,11.63
2023-04-15T08:23:52.786Z,8.13
2023-04-15T08:26:20.864Z,8.77
2023-04-15T08:28:48.346Z,7.93
2023-04-15T08:31:16.495Z,6.20
2023-04-15T08:33:44.315Z,13.68
2023-04-15T08:36:10.959Z,10.00
2023-04-15T08:38:37.967Z,9.07
2023-04-15T08:41:26.390Z,13.05
2023-04-15T08:43:57.313Z,6.57
2023-04-15T08:46:24.032Z,3.58
2023-04-15T08:48:50.822Z,5.88
2023-04-15T08:51:18.514Z,5.53
2023-04-15T08:53:47.190Z,4.38
2023-04-15T08:56:15.699Z,4.40
2023-04-15T08:58:44.975Z,4.65
2023-04-15T09:01:15.083Z,4.53
2023-04-15T09:03:42.027Z,3.67
2023-04-15T09:06:08.778Z,4.30
2023-04-15T09:08:35.785Z,4.00
2023-04-15T09:11:03.867Z,4.47
2023-04-15T09:13:31.055Z,4.00
2023-04-15T09:15:58.377Z,4.57
2023-04-15T09:18:29.875Z,4.75
2023-04-15T09:20:57.273Z,5.43
2023-04-15T09:23:23.988Z,5.45
2023-04-15T09:25:51.072Z,5.30
2023-04-15T09:28:24.543Z,5.13
2023-04-15T09:31:01.692Z,4.80
2023-04-15T09:33:30.147Z,7.68
2023-04-15T09:35:59.152Z,4.72
2023-04-15T09:38:26.168Z,5.20
2023-04-15T09:40:52.748Z,4.68
2023-04-15T09:43:19.336Z,8.15
2023-04-15T09:45:49.017Z,6.57
2023-04-15T09:48:22.863Z,4.93
2023-04-15T09:50:50.342Z,7.45
2023-04-15T09:53:19.242Z,6.65
2023-04-15T09:55:49.882Z,4.70
2023-04-15T09:58:24.544Z,6.82
2023-04-15T10:00:52.319Z,8.20
2023-04-15T10:03:27.866Z,4.38
2023-04-15T10:05:57.148Z,4.82
2023-04-15T10:08:26.150Z,4.25
2023-04-15T10:10:53.580Z,5.10
2023-04-15T10:13:23.564Z,4.80
2023-04-15T10:16:03.921Z,6.30
2023-04-15T10:18:34.379Z,9.13
2023-04-15T10:21:01.731Z,6.13
2023-04-15T10:23:28.766Z,5.15
2023-04-15T10:25:57.421Z,5.60
2023-04-15T10:28:24.516Z,4.82
2023-04-15T10:30:52.508Z,6.57
2023-04-15T10:33:24.089Z,8.15
2023-04-15T10:35:51.922Z,7.07
2023-04-15T10:38:45.609Z,3.88
2023-04-15T10:41:13.317Z,4.55
2023-04-15T10:43:40.187Z,8.05
2023-04-15T10:46:07.003Z,5.28
2023-04-15T10:48:33.586Z,4.78
2023-04-15T10:51:03.796Z,4.57
2023-04-15T10:53:31.758Z,5.20
2023-04-15T10:55:58.524Z,4.32
2023-04-15T10:58:25.970Z,5.72
2023-04-15T11:00:53.793Z,6.60
2023-04-15T11:03:40.889Z,5.65
2023-04-15T11:06:07.955Z,6.03
2023-04-15T11:08:56.484Z,5.80
2023-04-15T11:11:23.113Z,4.55
2023-04-15T11:13:51.675Z,6.13
2023-04-15T11:16:19.332Z,9.13
2023-04-15T11:18:55.991Z,9.85
2023-04-15T11:21:26.025Z,4.68
2023-04-15T11:23:52.644Z,5.43
2023-04-15T11:26:19.217Z,8.07
2023-04-15T11:28:46.644Z,6.70
2023-04-15T11:31:16.299Z,4.65
2023-04-15T11:33:46.100Z,5.22
2023-04-15T11:36:13.704Z,4.57
2023-04-15T11:38:44.768Z,4.38
2023-04-15T11:41:11.449Z,5.82
2023-04-15T11:43:37.989Z,4.97
2023-04-15T11:46:04.777Z,8.35
2023-04-15T11:48:33.651Z,4.35
2023-04-15T11:51:07.719Z,5.75
2023-04-15T11:53:40.865Z,5.40
2023-04-15T11:56:18.935Z,4.55
2023-04-15T11:58:46.552Z,4.35
2023-04-15T12:01:13.977Z,7.03
2023-04-15T12:03:46.855Z,7.13
2023-04-15T12:06:19.288Z,4.45
2023-04-15T12:08:55.090Z,5.80
2023-04-15T12:11:27.615Z,6.25
2023-04-15T12:13:56.660Z,8.48
2023-04-15T12:16:24.340Z,3.90
2023-04-15T12:18:52.734Z,5.13
2023-04-15T12:21:22.292Z,5.80
2023-04-15T12:23:50.667Z,4.20
2023-04-15T12:26:18.271Z,5.43
2023-04-15T12:28:44.924Z,6.50
2023-04-15T12:31:13.297Z,4.38
2023-04-15T12:33:40.520Z,3.72
2023-04-15T12:36:07.026Z,3.78
2023-04-15T12:38:33.617Z,4.22
2023-04-15T12:41:00.208Z,3.42
2023-04-15T12:43:27.192Z,5.80
2023-04-15T12:45:53.692Z,3.38
2023-04-15T12:48:20.294Z,6.28
2023-04-15T12:50:46.845Z,5.05
2023-04-15T12:53:13.659Z,3.42
2023-04-15T12:55:40.219Z,4.13
2023-04-15T12:58:06.917Z,3.78
2023-04-15T13:00:34.839Z,3.58
2023-04-15T13:03:02.457Z,2.92
2023-04-15T13:05:29.991Z,2.17
2023-04-15T13:07:56.566Z,2.38
2023-04-15T13:10:23.271Z,2.13
2023-04-15T13:12:53.281Z,3.55
2023-04-15T13:15:22.264Z,2.97
2023-04-15T13:17:49.510Z,3.88
2023-04-15T13:20:16.166Z,3.88
2023-04-15T13:22:42.720Z,4.43
2023-04-15T13:25:09.431Z,2.60
2023-04-15T13:27:36.025Z,4.88
2023-04-15T13:30:03.278Z,4.30
2023-04-15T13:32:29.904Z,3.28
2023-04-15T13:34:56.812Z,4.00
2023-04-15T13:37:27.979Z,3.55
2023-04-15T13:39:56.383Z,3.05
2023-04-15T13:42:23.736Z,3.90
2023-04-15T13:44:51.607Z,2.80
2023-04-15T13:47:19.807Z,2.85
2023-04-15T13:49:46.364Z,5.53
2023-04-15T13:52:13.287Z,4.88
2023-04-15T13:54:40.088Z,7.18
2023-04-15T13:57:07.031Z,2.72
2023-04-15T13:59:34.832Z,4.35
2023-04-15T14:02:01.711Z,4.07
2023-04-15T14:04:28.598Z,5.68
2023-04-15T14:06:56.237Z,3.58
2023-04-15T14:09:26.253Z,6.68
2023-04-15T14:11:53.215Z,7.10
2023-04-15T14:14:19.834Z,4.68
2023-04-15T14:16:47.760Z,3.85
2023-04-15T14:19:14.779Z,4.22
2023-04-15T14:21:41.392Z,3.67
2023-04-15T14:24:07.936Z,3.25
2023-04-15T14:26:34.637Z,5.88
2023-04-15T14:29:02.035Z,2.17
2023-04-15T14:31:28.896Z,3.22
2023-04-15T14:33:55.527Z,6.18
2023-04-15T14:36:22.156Z,3.40
2023-04-15T14:38:48.840Z,4.13
2023-04-15T14:41:16.009Z,2.55
2023-04-15T14:43:42.588Z,2.92
2023-04-15T14:46:10.502Z,5.97
2023-04-15T14:48:37.410Z,5.45
2023-04-15T14:51:04.023Z,3.63
2023-04-15T14:53:30.551Z,2.10
2023-04-15T14:55:57.116Z,4.53
2023-04-15T14:58:23.641Z,2.22
2023-04-15T15:00:50.334Z,2.65
2023-04-15T15:03:16.993Z,2.08
2023-04-15T15:05:46.170Z,5.53
2023-04-15T15:08:13.571Z,2.80
2023-04-15T15:10:48.599Z,2.33
2023-04-15T15:13:17.417Z,2.20
2023-04-15T15:15:44.059Z,4.82
2023-04-15T15:18:11.328Z,4.88
2023-04-15T15:20:37.957Z,4.05
2023-04-15T15:23:04.597Z,2.17
2023-04-15T15:25:31.261Z,4.65
2023-04-15T15:27:57.944Z,3.53
2023-04-15T15:30:24.548Z,1.50
2023-04-15T15:32:51.568Z,2.95
2023-04-15T15:35:18.343Z,2.80
2023-04-15T15:37:45.858Z,2.72
2023-04-15T15:40:12.671Z,1.45
2023-04-15T15:42:39.300Z,2.97
2023-04-15T15:45:06.399Z,2.38
2023-04-15T15:47:33.081Z,3.28
2023-04-15T15:50:02.285Z,3.40
2023-04-15T15:52:29.674Z,4.18
2023-04-15T15:54:56.154Z,4.30
2023-04-15T15:57:22.736Z,2.58
2023-04-15T15:59:50.060Z,2.22
2023-04-15T16:02:18.017Z,2.35
2023-04-15T16:04:44.691Z,5.85
2023-04-15T16:07:15.609Z,3.33
2023-04-15T16:09:42.570Z,4.72
2023-04-15T16:12:09.304Z,4.18
2023-04-15T16:14:36.393Z,5.88
2023-04-15T16:17:02.989Z,2.55
2023-04-15T16:19:30.129Z,4.72
2023-04-15T16:21:56.900Z,1.40
2023-04-15T16:24:23.494Z,2.70
2023-04-15T16:26:49.977Z,3.00
2023-04-15T16:29:16.697Z,2.95
2023-04-15T16:31:43.328Z,3.47
2023-04-15T16:34:10.168Z,6.93
2023-04-15T16:36:36.703Z,2.30
2023-04-15T16:39:04.003Z,2.80
2023-04-15T16:41:32.622Z,3.80
2023-04-15T16:44:01.207Z,2.53
2023-04-15T16:46:29.481Z,2.85
2023-04-15T16:48:56.157Z,2.78
2023-04-15T16:51:22.723Z,2.33
2023-04-15T16:53:49.352Z,3.38
2023-04-15T16:56:16.575Z,5.70
2023-04-15T16:58:43.323Z,5.55
2023-04-15T17:01:10.077Z,3.10
2023-04-15T17:03:37.051Z,3.22
2023-04-15T17:06:03.810Z,2.75
2023-04-15T17:08:30.427Z,3.17
2023-04-15T17:10:57.996Z,2.10
2023-04-15T17:13:25.913Z,3.95
2023-04-15T17:15:54.914Z,2.58
2023-04-15T17:18:22.235Z,2.50
2023-04-15T17:20:48.887Z,5.40
2023-04-15T17:23:15.526Z,4.00
2023-04-15T17:25:42.040Z,5.65
2023-04-15T17:28:08.578Z,4.20
2023-04-15T17:30:35.273Z,2.50
2023-04-15T17:33:02.016Z,4.28
2023-04-15T17:35:28.679Z,3.35
2023-04-15T17:37:55.377Z,5.05
2023-04-15T17:40:21.942Z,4.32
2023-04-15T17:42:48.874Z,2.95
2023-04-15T17:45:15.484Z,4.50
2023-04-15T17:47:42.161Z,1.50
2023-04-15T17:50:09.262Z,2.10
2023-04-15T17:52:36.265Z,2.88
2023-04-15T17:55:03.017Z,3.05
2023-04-15T17:57:29.750Z,4.55
2023-04-15T17:59:56.331Z,3.30
2023-04-15T18:02:23.199Z,4.07
2023-04-15T18:04:50.189Z,3.40
2023-04-15T18:07:16.877Z,4.50
2023-04-15T18:09:44.241Z,5.60
2023-04-15T18:12:10.893Z,4.13
2023-04-15T18:14:37.361Z,5.20
2023-04-15T18:17:04.121Z,6.45
2023-04-15T18:19:30.910Z,4.03
2023-04-15T18:21:59.738Z,3.30
2023-04-15T18:24:26.217Z,5.38
2023-04-15T18:26:52.888Z,3.58
2023-04-15T18:29:19.549Z,3.17
2023-04-15T18:31:46.123Z,5.85
2023-04-15T18:34:12.819Z,4.18
2023-04-15T18:36:39.429Z,3.30
2023-04-15T18:39:06.219Z,2.10
2023-04-15T18:41:33.158Z,4.25
2023-04-15T18:43:59.738Z,3.58
2023-04-15T18:46:27.535Z,4.38
2023-04-15T18:48:54.030Z,3.42
2023-04-15T18:51:20.617Z,7.20
2023-04-15T18:53:47.116Z,4.50
2023-04-15T18:56:13.731Z,3.08
2023-04-15T18:59:19.402Z,3.05
2023-04-15T19:01:26.861Z,2.80
2023-04-15T19:03:53.527Z,3.80
2023-04-15T19:06:20.482Z,4.70
2023-04-15T19:08:47.088Z,6.35
2023-04-15T19:11:13.666Z,3.72
2023-04-15T19:13:40.657Z,4.10
2023-04-15T19:16:07.292Z,6.90
2023-04-15T19:18:33.876Z,3.97
2023-04-15T19:21:00.788Z,7.30
2023-04-15T19:23:27.469Z,4.18
2023-04-15T19:25:54.094Z,4.35
2023-04-15T19:28:20.652Z,6.47
2023-04-15T19:30:47.253Z,7.18
2023-04-15T19:33:13.783Z,5.05
2023-04-15T19:35:40.915Z,4.93
2023-04-15T19:38:07.488Z,5.65
2023-04-15T19:40:33.986Z,4.15
2023-04-15T19:43:00.691Z,2.67
2023-04-15T19:45:27.406Z,2.13
2023-04-15T19:47:54.118Z,3.65
2023-04-15T19:50:25.743Z,2.30
2023-04-15T19:52:52.783Z,4.97
2023-04-15T19:55:19.536Z,2.53
2023-04-15T19:57:46.421Z,2.20
2023-04-15T20:00:13.285Z,5.07
2023-04-15T20:02:39.931Z,5.25
2023-04-15T20:05:09.686Z,6.65
2023-04-15T20:07:36.488Z,6.68
2023-04-15T20:10:03.172Z,4.68
2023-04-15T20:12:49.808Z,7.35
2023-04-15T20:15:20.585Z,6.13
2023-04-15T20:17:47.092Z,6.72
2023-04-15T20:20:13.758Z,6.15
2023-04-15T20:22:41.010Z,3.85
2023-04-15T20:25:07.917Z,6.88
2023-04-15T20:27:34.529Z,7.68
2023-04-15T20:30:01.169Z,3.95
2023-04-15T20:32:28.187Z,4.55
2023-04-15T20:34:55.048Z,4.38
2023-04-15T20:37:22.221Z,7.63
2023-04-15T20:39:49.234Z,7.13
2023-04-15T20:42:15.837Z,8.80
2023-04-15T20:44:42.489Z,8.15
2023-04-15T20:47:09.051Z,12.32
2023-04-15T20:49:36.709Z,6.35
2023-04-15T20:52:04.499Z,7.30
2023-04-15T20:54:31.411Z,8.32
2023-04-15T20:56:58.082Z,7.28
2023-04-15T20:59:25.028Z,6.53
2023-04-15T21:01:51.746Z,5.68
2023-04-15T21:04:18.895Z,8.95
2023-04-15T21:06:45.424Z,7.35
2023-04-15T21:09:12.059Z,7.40
2023-04-15T21:11:57.337Z,7.25
2023-04-15T21:14:25.321Z,9.48
2023-04-15T21:16:51.837Z,8.95
2023-04-15T21:19:18.428Z,8.73
2023-04-15T21:21:45.171Z,10.25
2023-04-15T21:24:11.743Z,10.10
2023-04-15T21:26:38.300Z,9.32
2023-04-15T21:29:05.084Z,11.13
2023-04-15T21:31:32.363Z,11.15
2023-04-15T21:33:58.955Z,12.30
2023-04-15T21:36:25.723Z,8.55
2023-04-15T21:38:52.406Z,12.07
2023-04-15T21:41:18.917Z,12.60
2023-04-15T21:43:45.413Z,11.80
2023-04-15T21:46:23.443Z,15.15
2023-04-15T21:48:54.736Z,11.48
2023-04-15T21:51:21.469Z,12.68
2023-04-15T21:53:48.085Z,15.07
2023-04-15T21:56:14.634Z,12.50
2023-04-15T21:58:41.240Z,14.80
2023-04-15T22:01:07.881Z,11.00
2023-04-15T22:03:35.062Z,13.32
2023-04-15T22:06:05.037Z,10.88
2023-04-15T22:08:38.691Z,13.73
2023-04-15T22:11:20.767Z,16.17
2023-04-15T22:13:47.466Z,14.82
2023-04-15T22:16:14.012Z,18.17
2023-04-15T22:18:40.572Z,18.27
2023-04-15T22:21:07.873Z,12.40
2023-04-15T22:23:34.427Z,11.60
2023-04-15T22:26:00.930Z,10.40
2023-04-15T22:28:27.561Z,13.48
2023-04-15T22:30:54.582Z,9.82
2023-04-15T22:33:21.194Z,12.60
2023-04-15T22:35:47.710Z,10.13
2023-04-15T22:38:14.244Z,10.20
2023-04-15T22:40:40.925Z,10.23
2023-04-15T22:43:07.564Z,10.10
2023-04-15T22:45:34.031Z,11.02
2023-04-15T22:48:00.735Z,6.88
2023-04-15T22:50:27.344Z,16.60
2023-04-15T22:52:53.918Z,11.82
2023-04-15T22:55:20.637Z,12.10
2023-04-15T22:57:47.319Z,15.27
2023-04-15T23:00:13.958Z,18.05
2023-04-15T23:02:40.661Z,14.10
2023-04-15T23:05:12.108Z,14.48
2023-04-15T23:07:39.497Z,11.68
2023-04-15T23:10:06.923Z,10.35
2023-04-15T23:12:33.499Z,12.80
2023-04-15T23:15:00.332Z,8.80
2023-04-15T23:17:27.190Z,10.70
2023-04-15T23:19:53.842Z,10.88
2023-04-15T23:22:20.385Z,15.27
2023-04-15T23:24:46.882Z,7.90
2023-04-15T23:27:13.545Z,13.93
2023-04-15T23:29:40.405Z,14.95
2023-04-15T23:32:07.025Z,12.02
2023-04-15T23:34:33.569Z,13.18
2023-04-15T23:37:00.335Z,8.70
2023-04-15T23:39:26.998Z,13.02
2023-04-15T23:41:53.721Z,10.52
2023-04-15T23:44:20.279Z,14.85
2023-04-15T23:46:47.021Z,11.90
2023-04-15T23:49:13.604Z,11.13
2023-04-15T23:51:40.874Z,7.57
2023-04-15T23:54:07.421Z,9.02
2023-04-15T23:56:34.136Z,9.95
2023-04-15T23:59:00.734Z,10.25
